Hovedside
METAR-TAF:

METAR-TAF

Lufthavner :

Lanzarote, Spania

Lanzarote lufthavn

breddegrad: 28-57N, lengdegrad: 013-36W, høyde over havet: 14 m

Gjeldene værobservasjon

Denne rapporten ble laget for 39 minutter siden, klokken 06:30 UTC
Vind 6 kt fra Nord
Temperatur 15°C
Luftfuktighet 88%
Trykk 1030 hPa
Sikt 10 km eller mer
ingen skyer under 1500 m og ingen bygeskyer

METAR: GCRR 180630Z 36006KT CAVOK 15/13 Q1030

Tid: 07:09 (07:09 UTC)

Varsel

Denne rapporten ble laget for 5 timer og 9 minutter siden, klokken 02:00 UTC
Varsel gyldig fra 18. klokken 03 UTC til 19. klokken 03 UTC
Vind 9 kt fra Nord-nordøst
Sikt 10 km eller mer
ingen skyer under 1500 m og ingen bygeskyer
Blir
fra 18. klokken 09 UTC til 18. klokken 11 UTC
Vind 10 kt fra Øst
Blir
fra 18. klokken 17 UTC til 18. klokken 19 UTC
Vind 10 kt fra Nord-nordøst

TAF: GCRR 180200Z 1803/1903 02009KT CAVOK TX21/1815Z TN13/1806Z BECMG 1809/1811 09010KT BECMG 1817/1819 02010KT

Værobservasjoner og værvarsel for over 4000 flyplasser (METAR- og TAF-rapporter).

Tilgjengelige stasjoner er representert av de røde og gule prikkene på kartet.

Hold musepekeren over prikken for å se navnet på stasjonen.

Klikk så for å se værobservasjoner og -varsler.

For å forandre kartet kan du klikke på den grønne knappen med svart kryss for å zoome inn, på den grønne knappen med strek for å zoome ut, eller på de grønne pilene for å se tilstøtende kart.


METAR-TAF: